Time;durP1;ratioP1;P1;durP2;ratioP2;P2;SDS_P1;SDS_P2;PMS_P1;PMS_P2;Temp;Humidity;BMP_temperature;BMP_pressure;BME280_temperature;BME280_humidity;BME280_pressure;Samples;Min_cycle;Max_cycle;Signal;HPM_P1;HPM_P2
2022/03/09 00:01:51;;;;;;;23.77;18.05;;;6.90;99.90;;;;;;5015846;28;20523;-71
2022/03/09 00:04:17;;;;;;;26.10;18.27;;;6.90;99.90;;;;;;5015832;28;20126;-71
2022/03/09 00:06:43;;;;;;;23.98;18.17;;;6.90;99.90;;;;;;5015184;28;20579;-71
2022/03/09 00:09:10;;;;;;;33.97;19.83;;;6.90;99.90;;;;;;5015762;28;20072;-71
2022/03/09 00:11:36;;;;;;;29.10;20.10;;;6.80;99.90;;;;;;5015909;28;20038;-71
2022/03/09 00:14:02;;;;;;;26.20;18.88;;;6.80;99.90;;;;;;5015998;28;20096;-71
2022/03/09 00:16:28;;;;;;;30.00;19.75;;;6.70;99.90;;;;;;5015938;28;20133;-71
2022/03/09 00:18:54;;;;;;;28.17;19.40;;;6.60;99.90;;;;;;5015623;28;20061;-71
2022/03/09 00:21:20;;;;;;;35.17;23.02;;;6.60;99.90;;;;;;5015523;28;20396;-71
2022/03/09 00:23:46;;;;;;;32.50;20.42;;;6.50;99.90;;;;;;5015593;28;20057;-71
2022/03/09 00:26:11;;;;;;;39.20;25.58;;;6.50;99.90;;;;;;5015916;28;20372;-71
2022/03/09 00:28:37;;;;;;;31.88;21.63;;;6.60;99.90;;;;;;5015473;28;20128;-71
2022/03/09 00:31:03;;;;;;;31.55;19.77;;;6.50;99.90;;;;;;5015290;28;20435;-71
2022/03/09 00:33:29;;;;;;;30.90;19.17;;;6.50;99.90;;;;;;5015565;28;20130;-71
2022/03/09 00:35:55;;;;;;;28.83;18.98;;;6.40;99.90;;;;;;5015327;28;20415;-71
2022/03/09 00:38:21;;;;;;;26.55;18.27;;;6.40;99.90;;;;;;5015513;28;20029;-71
2022/03/09 00:40:48;;;;;;;31.55;20.52;;;6.50;99.90;;;;;;5015216;28;20045;-71
2022/03/09 00:43:15;;;;;;;28.33;20.20;;;6.50;99.90;;;;;;5015364;28;20128;-71
2022/03/09 00:45:41;;;;;;;29.40;19.15;;;6.50;99.90;;;;;;5015860;28;20048;-71
2022/03/09 00:48:07;;;;;;;31.27;19.48;;;6.60;99.90;;;;;;5015535;28;20037;-71
2022/03/09 00:50:33;;;;;;;32.42;20.55;;;6.60;99.90;;;;;;5015611;28;20042;-71
2022/03/09 00:52:59;;;;;;;32.35;19.45;;;6.60;99.90;;;;;;5015360;28;20045;-71
2022/03/09 00:55:25;;;;;;;29.95;19.40;;;6.60;99.90;;;;;;5014985;28;20050;-71
2022/03/09 00:57:51;;;;;;;27.55;18.55;;;6.60;99.90;;;;;;5015382;28;20044;-71
2022/03/09 01:00:16;;;;;;;28.63;19.05;;;6.60;99.90;;;;;;5015751;28;20038;-71
2022/03/09 01:02:43;;;;;;;30.73;19.75;;;6.50;99.90;;;;;;5015406;28;20096;-71
2022/03/09 01:05:10;;;;;;;32.08;20.00;;;6.60;99.90;;;;;;5014983;28;20084;-71
2022/03/09 01:07:37;;;;;;;29.08;18.95;;;6.60;99.90;;;;;;5014586;28;20492;-71
2022/03/09 01:10:03;;;;;;;30.88;19.90;;;6.60;99.90;;;;;;5014528;28;20045;-71
2022/03/09 01:12:29;;;;;;;27.35;18.85;;;6.60;99.90;;;;;;5014786;28;20049;-71
2022/03/09 01:14:56;;;;;;;32.10;20.40;;;6.60;99.90;;;;;;5015323;28;20116;-71
2022/03/09 01:17:22;;;;;;;30.40;19.98;;;6.60;99.90;;;;;;5014946;28;20073;-71
2022/03/09 01:19:48;;;;;;;31.92;19.90;;;6.60;99.90;;;;;;5014433;28;20092;-71
2022/03/09 01:22:14;;;;;;;35.50;20.30;;;6.50;99.90;;;;;;5014377;28;20045;-70
2022/03/09 01:24:40;;;;;;;32.28;21.52;;;6.50;99.90;;;;;;5014369;28;20045;-71
2022/03/09 01:27:06;;;;;;;31.67;18.58;;;6.50;99.90;;;;;;5014549;28;20057;-71
2022/03/09 01:29:32;;;;;;;32.42;19.02;;;6.50;99.90;;;;;;5014231;28;20034;-71
2022/03/09 01:31:58;;;;;;;28.00;18.08;;;6.40;99.90;;;;;;5014797;28;20048;-71
2022/03/09 01:34:23;;;;;;;29.58;17.77;;;6.40;99.90;;;;;;5016605;28;20046;-71
2022/03/09 01:36:49;;;;;;;27.55;17.77;;;6.50;99.90;;;;;;5018655;28;20046;-71
2022/03/09 01:39:15;;;;;;;39.22;19.48;;;6.50;99.90;;;;;;5018280;28;20033;-71
2022/03/09 01:41:41;;;;;;;31.95;19.67;;;6.50;99.90;;;;;;5018439;28;20070;-71
2022/03/09 01:44:11;;;;;;;33.70;19.15;;;6.60;1.00;;;;;;5018137;28;20037;-71
2022/03/09 01:46:37;;;;;;;29.92;19.27;;;6.50;1.00;;;;;;5018647;28;20045;-71
2022/03/09 01:49:05;;;;;;;25.83;17.60;;;6.50;1.00;;;;;;5018352;28;20042;-71
2022/03/09 01:51:32;;;;;;;27.65;17.50;;;6.50;1.00;;;;;;5018012;28;20045;-71
2022/03/09 01:53:59;;;;;;;31.67;17.63;;;6.50;1.00;;;;;;5018249;28;20488;-71
2022/03/09 01:56:25;;;;;;;29.00;17.98;;;6.50;1.00;;;;;;5018205;28;20054;-71
2022/03/09 01:58:51;;;;;;;30.95;18.70;;;6.50;1.00;;;;;;5018233;28;20045;-71
2022/03/09 02:01:17;;;;;;;35.67;19.98;;;6.40;1.00;;;;;;5018126;28;20393;-71
2022/03/09 02:03:42;;;;;;;32.00;18.63;;;6.40;1.00;;;;;;5018065;28;20091;-71
2022/03/09 02:06:09;;;;;;;42.05;21.00;;;6.40;1.00;;;;;;5017540;28;20061;-71
2022/03/09 02:11:21;;;;;;;40.55;20.02;;;6.50;1.00;;;;;;5018298;28;20045;-71
2022/03/09 02:13:47;;;;;;;31.90;21.17;;;6.60;1.00;;;;;;5018762;28;20046;-71
2022/03/09 02:16:15;;;;;;;40.08;20.23;;;6.60;1.00;;;;;;5017859;28;20111;-71
2022/03/09 02:18:42;;;;;;;28.75;17.70;;;6.50;1.00;;;;;;5018145;28;20037;-71
2022/03/09 02:21:10;;;;;;;30.33;17.70;;;6.50;1.00;;;;;;5018097;28;20045;-71
2022/03/09 02:23:36;;;;;;;37.00;20.73;;;6.50;1.00;;;;;;5018058;28;20038;-71
2022/03/09 02:26:02;;;;;;;31.27;19.55;;;6.50;1.00;;;;;;5018175;28;20044;-71
2022/03/09 02:28:28;;;;;;;35.78;20.17;;;6.50;1.00;;;;;;5017989;28;20559;-71
2022/03/09 02:30:57;;;;;;;28.75;18.52;;;6.50;1.00;;;;;;5017874;28;20042;-71
2022/03/09 02:33:23;;;;;;;35.63;19.75;;;6.50;1.00;;;;;;5017720;28;20069;-71
2022/03/09 02:35:52;;;;;;;34.90;19.48;;;6.60;1.00;;;;;;5017214;28;20120;-71
2022/03/09 02:38:17;;;;;;;28.75;20.27;;;6.50;1.00;;;;;;5017120;28;20038;-71
2022/03/09 02:40:43;;;;;;;31.10;19.73;;;6.50;1.00;;;;;;5017396;28;20045;-71
2022/03/09 02:43:09;;;;;;;28.52;18.98;;;6.50;1.00;;;;;;5017336;28;20042;-71
2022/03/09 02:45:35;;;;;;;27.35;16.88;;;6.60;1.00;;;;;;5016719;28;20084;-71
2022/03/09 02:48:01;;;;;;;28.25;16.35;;;6.60;1.00;;;;;;5017052;28;20120;-71
2022/03/09 02:50:26;;;;;;;27.48;17.67;;;6.50;1.00;;;;;;5016949;28;20038;-71
2022/03/09 02:52:52;;;;;;;25.23;16.08;;;6.50;1.00;;;;;;5017153;28;20033;-71
2022/03/09 02:55:18;;;;;;;26.35;17.15;;;6.40;1.00;;;;;;5017013;28;20061;-71
2022/03/09 02:57:44;;;;;;;26.85;17.63;;;6.40;1.00;;;;;;5017390;28;20042;-71
2022/03/09 03:00:11;;;;;;;30.52;17.55;;;6.40;1.00;;;;;;5017043;28;20506;-71
2022/03/09 03:02:38;;;;;;;30.88;18.05;;;6.40;1.00;;;;;;5017269;28;20054;-71
2022/03/09 03:05:05;;;;;;;29.02;18.85;;;6.50;1.00;;;;;;5016940;28;20049;-71
2022/03/09 03:07:31;;;;;;;29.58;18.88;;;6.50;1.00;;;;;;5016588;28;20505;-71
2022/03/09 03:09:57;;;;;;;30.08;18.95;;;6.40;1.00;;;;;;5017107;28;20034;-71
2022/03/09 03:12:23;;;;;;;33.63;19.27;;;6.50;1.00;;;;;;5017086;28;20469;-71
2022/03/09 03:14:48;;;;;;;31.05;17.70;;;6.50;1.00;;;;;;5017066;28;20489;-71
2022/03/09 03:17:14;;;;;;;28.35;17.30;;;6.50;1.00;;;;;;5017391;28;20045;-71
2022/03/09 03:19:40;;;;;;;25.33;16.23;;;6.50;1.00;;;;;;5016703;28;20042;-71
2022/03/09 03:22:06;;;;;;;25.38;16.50;;;6.40;1.00;;;;;;5016472;28;20393;-71
2022/03/09 03:24:32;;;;;;;28.95;16.73;;;6.50;1.00;;;;;;5017428;28;20065;-71
2022/03/09 03:26:58;;;;;;;30.30;16.65;;;6.50;1.00;;;;;;5016970;28;20096;-71
2022/03/09 03:29:23;;;;;;;23.13;16.00;;;6.50;1.00;;;;;;5016705;28;20452;-71
2022/03/09 03:31:49;;;;;;;32.53;16.85;;;6.50;1.00;;;;;;5016358;28;20042;-71
2022/03/09 03:34:15;;;;;;;25.17;16.27;;;6.50;1.00;;;;;;5016707;28;20117;-71
2022/03/09 03:36:41;;;;;;;28.85;17.15;;;6.50;1.00;;;;;;5016954;28;20373;-71
2022/03/09 03:39:07;;;;;;;30.83;17.50;;;6.50;1.00;;;;;;5016869;28;20041;-71
2022/03/09 03:41:33;;;;;;;30.50;17.25;;;6.50;1.00;;;;;;5016517;28;20042;-71
2022/03/09 03:43:59;;;;;;;26.70;16.52;;;6.50;1.00;;;;;;5016523;28;20042;-71
2022/03/09 03:46:24;;;;;;;29.52;16.45;;;6.50;1.00;;;;;;5016078;28;20052;-71
2022/03/09 03:48:50;;;;;;;26.77;16.02;;;6.50;1.00;;;;;;5016676;28;20050;-71
2022/03/09 03:51:16;;;;;;;25.35;16.00;;;6.50;1.00;;;;;;5016210;28;20048;-71
2022/03/09 03:53:42;;;;;;;22.65;15.32;;;6.50;1.00;;;;;;5016325;28;20049;-71
2022/03/09 03:56:08;;;;;;;21.88;14.77;;;6.50;1.00;;;;;;5016162;28;20049;-71
2022/03/09 03:58:34;;;;;;;23.65;15.20;;;6.50;1.00;;;;;;5015622;28;20041;-71
2022/03/09 04:01:00;;;;;;;22.42;14.82;;;6.50;1.00;;;;;;5016128;28;20095;-71
2022/03/09 04:03:26;;;;;;;22.80;15.75;;;6.50;1.00;;;;;;5016216;28;20045;-71
2022/03/09 04:05:51;;;;;;;23.02;14.25;;;6.60;1.00;;;;;;5016587;28;20105;-71
2022/03/09 04:08:17;;;;;;;23.60;16.00;;;6.60;1.00;;;;;;5015379;28;20061;-71
2022/03/09 04:10:43;;;;;;;19.60;13.75;;;6.60;1.00;;;;;;5015756;28;20512;-71
2022/03/09 04:13:09;;;;;;;21.23;14.40;;;6.60;1.00;;;;;;5015413;28;20049;-71
2022/03/09 04:15:34;;;;;;;23.33;14.70;;;6.60;1.00;;;;;;5015638;28;20049;-71
2022/03/09 04:18:01;;;;;;;19.77;13.52;;;6.60;1.00;;;;;;5015558;28;20065;-71
2022/03/09 04:20:27;;;;;;;22.52;14.30;;;6.60;99.90;;;;;;5015452;28;20125;-71
2022/03/09 04:22:53;;;;;;;23.70;15.77;;;6.60;99.90;;;;;;5015122;28;20044;-71
2022/03/09 04:25:19;;;;;;;24.67;14.57;;;6.60;99.90;;;;;;5015349;28;20034;-71
2022/03/09 04:27:45;;;;;;;18.40;14.43;;;6.50;99.90;;;;;;5015117;28;20045;-71
2022/03/09 04:30:11;;;;;;;19.58;14.85;;;6.50;99.90;;;;;;5015070;28;20034;-71
2022/03/09 04:35:13;;;;;;;19.55;14.27;;;6.60;99.90;;;;;;5245484;23;20057;-70
2022/03/09 04:37:38;;;;;;;16.05;13.90;;;6.60;99.90;;;;;;5035604;28;20037;-70
2022/03/09 04:40:05;;;;;;;21.90;13.82;;;6.60;99.90;;;;;;5035038;28;20048;-71
2022/03/09 04:42:31;;;;;;;22.23;14.98;;;6.60;99.90;;;;;;5034976;28;20566;-70
2022/03/09 04:44:57;;;;;;;20.50;14.95;;;6.60;99.90;;;;;;5034572;28;20121;-70
2022/03/09 04:47:23;;;;;;;20.88;16.05;;;6.60;99.90;;;;;;5034714;28;20048;-70
2022/03/09 04:49:51;;;;;;;23.02;15.75;;;6.70;99.90;;;;;;5034700;28;20030;-70
2022/03/09 04:52:18;;;;;;;25.52;16.45;;;6.60;99.90;;;;;;5035285;28;20033;-70
2022/03/09 04:54:44;;;;;;;19.25;15.15;;;6.50;99.90;;;;;;5034959;28;20045;-70
2022/03/09 04:57:10;;;;;;;18.98;14.43;;;6.60;99.90;;;;;;5034459;28;20072;-70
2022/03/09 04:59:36;;;;;;;20.20;15.23;;;6.50;99.90;;;;;;5034711;28;20072;-70
2022/03/09 05:02:02;;;;;;;19.55;14.77;;;6.60;99.90;;;;;;5034718;28;20087;-70
2022/03/09 05:04:28;;;;;;;20.58;15.50;;;6.70;99.90;;;;;;5034324;28;20546;-70
2022/03/09 05:06:55;;;;;;;18.58;14.88;;;6.70;99.90;;;;;;5034184;28;20045;-70
2022/03/09 05:09:21;;;;;;;19.73;14.95;;;6.70;99.90;;;;;;5034210;28;20038;-70
2022/03/09 05:11:47;;;;;;;19.88;14.65;;;6.70;99.90;;;;;;5034576;28;20120;-70
2022/03/09 05:14:12;;;;;;;26.10;15.70;;;6.70;99.90;;;;;;5034452;28;20129;-70
2022/03/09 05:16:39;;;;;;;20.50;14.68;;;6.80;99.90;;;;;;5034213;28;20038;-71
2022/03/09 05:19:05;;;;;;;18.10;14.40;;;6.70;99.90;;;;;;5034511;28;20037;-71
2022/03/09 05:24:02;;;;;;;18.60;14.52;;;6.70;99.90;;;;;;5032401;28;20530;-70
2022/03/09 05:26:28;;;;;;;19.15;14.57;;;6.60;99.90;;;;;;5034093;28;20045;-70
2022/03/09 05:28:56;;;;;;;19.73;14.13;;;6.60;99.90;;;;;;5034507;28;20049;-70
2022/03/09 05:31:22;;;;;;;22.27;14.68;;;6.60;99.90;;;;;;5032499;28;20075;-70
2022/03/09 05:33:48;;;;;;;20.33;14.55;;;6.60;99.90;;;;;;5020867;28;20484;-70
2022/03/09 05:36:14;;;;;;;20.48;15.85;;;6.60;99.90;;;;;;5024118;28;20072;-70
2022/03/09 05:41:15;;;;;;;21.15;15.35;;;6.60;99.90;;;;;;5108647;22;20466;-70
2022/03/09 05:43:41;;;;;;;21.77;15.30;;;6.70;99.90;;;;;;5014519;28;20084;-71
2022/03/09 05:46:07;;;;;;;20.10;14.65;;;6.70;99.90;;;;;;5014465;28;20038;-70
2022/03/09 05:48:33;;;;;;;19.25;14.15;;;6.60;99.90;;;;;;5014515;28;20103;-70
2022/03/09 05:50:59;;;;;;;23.25;16.23;;;6.60;99.90;;;;;;5007523;28;20528;-70
2022/03/09 05:53:24;;;;;;;20.63;15.73;;;6.60;99.90;;;;;;4994538;28;20049;-71
2022/03/09 05:55:50;;;;;;;25.23;16.73;;;6.70;99.90;;;;;;5002829;28;20103;-70
2022/03/09 05:58:16;;;;;;;22.67;15.27;;;6.70;99.90;;;;;;4997802;28;20034;-70
2022/03/09 06:00:42;;;;;;;20.65;15.02;;;6.70;99.90;;;;;;4997957;28;20061;-70
2022/03/09 06:03:08;;;;;;;20.33;15.82;;;6.70;99.90;;;;;;5014376;28;20038;-70
2022/03/09 06:05:33;;;;;;;23.98;15.23;;;5.70;99.90;;;;;;5014456;28;20558;-70
2022/03/09 06:07:59;;;;;;;21.83;16.20;;;6.70;99.90;;;;;;5005962;28;20395;-71
2022/03/09 06:10:27;;;;;;;20.92;15.57;;;6.70;99.90;;;;;;4996066;28;20432;-70
2022/03/09 06:12:54;;;;;;;19.67;14.77;;;;;;;;;;4994750;28;20034;-72
2022/03/09 06:15:20;;;;;;;23.00;15.93;;;6.70;99.90;;;;;;4994304;28;20443;-72
2022/03/09 06:17:48;;;;;;;25.52;17.60;;;6.70;99.90;;;;;;4994309;28;20034;-72
2022/03/09 06:20:17;;;;;;;23.13;15.25;;;6.70;99.90;;;;;;4995735;28;20117;-72
2022/03/09 06:22:43;;;;;;;19.70;14.77;;;6.70;99.90;;;;;;5015837;28;20034;-72
2022/03/09 06:25:09;;;;;;;23.27;16.50;;;6.70;99.90;;;;;;5017234;28;20042;-72
2022/03/09 06:27:49;;;;;;;21.55;14.18;;;6.60;99.90;;;;;;5017266;28;20042;-72
2022/03/09 06:30:15;;;;;;;17.63;13.35;;;6.70;99.90;;;;;;5017552;28;20042;-72
2022/03/09 06:32:43;;;;;;;16.58;13.73;;;6.70;99.90;;;;;;5017556;28;20105;-72
2022/03/09 06:35:09;;;;;;;17.88;12.55;;;6.70;99.90;;;;;;5017224;28;20042;-72
2022/03/09 06:37:35;;;;;;;21.10;14.02;;;6.80;99.90;;;;;;5017526;28;20033;-72
2022/03/09 06:40:02;;;;;;;18.27;13.50;;;;;;;;;;5017321;28;20046;-72
2022/03/09 06:42:29;;;;;;;17.85;13.30;;;6.80;99.90;;;;;;5017392;28;20126;-72
2022/03/09 06:44:55;;;;;;;18.83;13.70;;;6.80;99.90;;;;;;5017371;28;20084;-72
2022/03/09 06:47:21;;;;;;;19.17;14.32;;;6.80;99.90;;;;;;5017296;28;20511;-72
2022/03/09 06:49:47;;;;;;;16.42;13.13;;;6.90;99.90;;;;;;5017550;28;20056;-72
2022/03/09 06:52:13;;;;;;;17.58;13.18;;;6.90;99.90;;;;;;5017363;28;20034;-72
2022/03/09 06:54:39;;;;;;;16.30;13.40;;;6.90;99.90;;;;;;5016946;28;20083;-72
2022/03/09 06:57:05;;;;;;;16.63;13.70;;;6.90;99.90;;;;;;5017176;28;20046;-73
2022/03/09 06:59:30;;;;;;;18.08;12.57;;;6.90;99.90;;;;;;5016736;28;20393;-73
2022/03/09 07:01:56;;;;;;;16.63;13.45;;;6.90;99.90;;;;;;5017307;28;20046;-74
2022/03/09 07:04:22;;;;;;;16.38;11.80;;;6.90;99.90;;;;;;5017267;28;20073;-74
2022/03/09 07:06:48;;;;;;;15.73;11.95;;;6.80;99.90;;;;;;5016888;28;20084;-73
2022/03/09 07:09:16;;;;;;;13.00;11.05;;;6.80;99.90;;;;;;5017135;28;20361;-74
2022/03/09 07:11:42;;;;;;;14.75;11.60;;;6.80;99.90;;;;;;5016587;28;20046;-74
2022/03/09 07:14:08;;;;;;;16.13;11.75;;;6.90;99.90;;;;;;5016712;28;20187;-73
2022/03/09 07:16:34;;;;;;;15.25;10.57;;;7.00;99.90;;;;;;5016776;28;20132;-74
2022/03/09 07:19:00;;;;;;;13.68;10.38;;;7.00;99.90;;;;;;5016443;28;20091;-74
2022/03/09 07:21:26;;;;;;;13.15;10.23;;;7.00;99.90;;;;;;5017505;28;20059;-74
2022/03/09 07:23:52;;;;;;;12.02;10.27;;;7.00;99.90;;;;;;5016403;28;20504;-74
2022/03/09 07:26:18;;;;;;;16.30;11.85;;;7.00;99.90;;;;;;5016190;28;20050;-73
2022/03/09 07:28:44;;;;;;;12.60;10.50;;;7.10;99.90;;;;;;5016548;28;20069;-74
2022/03/09 07:31:10;;;;;;;13.23;10.30;;;7.10;99.90;;;;;;5015986;28;20073;-74
2022/03/09 07:33:36;;;;;;;16.77;12.18;;;7.10;99.90;;;;;;5016623;28;20042;-74
2022/03/09 07:36:02;;;;;;;14.45;11.13;;;7.10;99.90;;;;;;5016448;28;20041;-73
2022/03/09 07:38:28;;;;;;;17.33;11.38;;;7.10;99.90;;;;;;5016798;28;20065;-73
2022/03/09 07:40:54;;;;;;;17.48;12.85;;;7.10;99.90;;;;;;5016056;28;20096;-73
2022/03/09 07:43:20;;;;;;;15.52;12.40;;;7.10;99.90;;;;;;5016314;28;20072;-74
2022/03/09 07:45:47;;;;;;;17.33;13.00;;;7.10;99.90;;;;;;5004570;28;20124;-74
2022/03/09 07:48:13;;;;;;;14.50;12.07;;;7.10;99.90;;;;;;4999396;28;20034;-74
2022/03/09 07:50:39;;;;;;;16.38;12.65;;;7.10;99.90;;;;;;4983706;28;20452;-74
2022/03/09 07:53:06;;;;;;;17.10;12.70;;;7.10;99.90;;;;;;5007080;28;20038;-74
2022/03/09 07:55:32;;;;;;;17.42;12.48;;;7.10;99.90;;;;;;4996306;28;20054;-74
2022/03/09 07:57:58;;;;;;;18.02;12.95;;;7.10;99.90;;;;;;5007748;28;20036;-74
2022/03/09 08:00:24;;;;;;;16.80;12.85;;;7.10;99.90;;;;;;5015996;28;20125;-73
2022/03/09 08:02:50;;;;;;;16.38;13.25;;;7.10;99.90;;;;;;5009877;28;20479;-74
2022/03/09 08:05:16;;;;;;;19.83;12.65;;;7.10;99.90;;;;;;5009426;28;20114;-74
2022/03/09 08:07:43;;;;;;;16.08;13.25;;;7.10;99.90;;;;;;4996469;28;20186;-73
2022/03/09 08:10:10;;;;;;;15.60;12.98;;;7.20;99.90;;;;;;5001992;28;20053;-74
2022/03/09 08:12:36;;;;;;;17.27;12.85;;;7.20;99.90;;;;;;5009007;28;20033;-73
2022/03/09 08:15:04;;;;;;;13.50;11.77;;;7.20;99.90;;;;;;5015519;28;20100;-73
2022/03/09 08:17:30;;;;;;;14.15;12.23;;;7.20;99.90;;;;;;4996177;28;20046;-74
2022/03/09 08:19:56;;;;;;;15.65;12.00;;;7.20;99.90;;;;;;4996184;28;20543;-74
2022/03/09 08:22:22;;;;;;;17.40;12.48;;;7.30;99.90;;;;;;4996209;28;20046;-73
2022/03/09 08:24:48;;;;;;;13.25;11.73;;;7.40;99.90;;;;;;4995650;28;20038;-74
2022/03/09 08:27:14;;;;;;;13.60;11.07;;;7.40;99.90;;;;;;5003159;28;20041;-74
2022/03/09 08:29:40;;;;;;;14.75;11.85;;;7.40;99.90;;;;;;5006774;28;20053;-74
2022/03/09 08:32:06;;;;;;;15.18;12.35;;;7.40;99.90;;;;;;5000809;28;20038;-75
2022/03/09 08:34:32;;;;;;;14.30;12.20;;;7.30;99.90;;;;;;5011196;28;20054;-74
2022/03/09 08:36:57;;;;;;;16.50;11.85;;;7.30;99.90;;;;;;5002610;28;20133;-73
2022/03/09 08:39:23;;;;;;;17.77;12.18;;;7.40;99.90;;;;;;5006752;28;20452;-74
2022/03/09 08:41:49;;;;;;;14.68;12.15;;;7.40;99.90;;;;;;5007262;28;20040;-74
2022/03/09 08:44:16;;;;;;;15.00;12.40;;;7.40;99.90;;;;;;5014107;28;20506;-74
2022/03/09 08:46:42;;;;;;;14.93;13.10;;;7.40;99.90;;;;;;5009429;28;20050;-74
2022/03/09 08:49:08;;;;;;;14.27;11.32;;;7.50;99.90;;;;;;5012841;28;20554;-73
2022/03/09 08:51:34;;;;;;;15.15;11.95;;;7.50;99.90;;;;;;4994464;28;20073;-73
2022/03/09 08:54:00;;;;;;;15.43;12.05;;;7.50;99.90;;;;;;5009632;28;20530;-73
2022/03/09 08:56:28;;;;;;;13.93;10.85;;;7.50;99.90;;;;;;5004202;28;20069;-74
2022/03/09 08:58:55;;;;;;;12.77;11.20;;;7.50;99.90;;;;;;4995202;28;20045;-74
2022/03/09 09:01:22;;;;;;;12.40;11.10;;;7.50;99.90;;;;;;4996290;28;20042;-74
2022/03/09 09:03:48;;;;;;;13.02;11.25;;;7.60;99.90;;;;;;5003291;28;20052;-73
2022/03/09 09:06:14;;;;;;;16.20;11.50;;;7.70;99.90;;;;;;4994416;28;20043;-73
2022/03/09 09:08:40;;;;;;;17.38;11.35;;;7.80;99.90;;;;;;4995895;28;20038;-73
2022/03/09 09:11:06;;;;;;;16.58;12.75;;;7.90;99.90;;;;;;4996901;28;20050;-73
2022/03/09 09:13:32;;;;;;;15.75;12.57;;;7.90;99.90;;;;;;4996702;28;20421;-74
2022/03/09 09:15:58;;;;;;;17.48;13.27;;;7.90;99.90;;;;;;5005982;28;20042;-73
2022/03/09 09:18:25;;;;;;;17.48;13.75;;;7.70;99.90;;;;;;4998652;28;20108;-74
2022/03/09 09:20:53;;;;;;;17.60;13.88;;;7.70;99.90;;;;;;4999912;28;20041;-74
2022/03/09 09:23:19;;;;;;;17.63;14.52;;;7.90;99.90;;;;;;5004975;28;20484;-75
2022/03/09 09:25:45;;;;;;;18.08;14.75;;;7.90;99.90;;;;;;5003078;28;20074;-75
2022/03/09 09:28:12;;;;;;;16.40;12.80;;;7.70;99.90;;;;;;4977310;28;20464;-75
2022/03/09 09:30:38;;;;;;;21.67;14.77;;;7.70;99.90;;;;;;4994698;28;20377;-74
2022/03/09 09:33:04;;;;;;;19.15;15.40;;;7.70;99.90;;;;;;5000215;28;20097;-74
2022/03/09 09:35:30;;;;;;;18.02;13.00;;;7.60;99.90;;;;;;4994271;28;20471;-74
2022/03/09 09:37:56;;;;;;;22.17;14.40;;;7.60;99.90;;;;;;4997896;28;20037;-74
2022/03/09 09:40:23;;;;;;;18.38;14.70;;;7.50;99.90;;;;;;5009951;28;20069;-74
2022/03/09 09:42:50;;;;;;;18.92;13.43;;;7.50;99.90;;;;;;5004555;28;20041;-74
2022/03/09 09:45:16;;;;;;;16.55;14.13;;;7.40;99.90;;;;;;5006386;28;20209;-74
2022/03/09 09:47:43;;;;;;;20.65;15.13;;;7.40;99.90;;;;;;5003067;28;20567;-74
2022/03/09 09:50:13;;;;;;;39.15;28.55;;;7.60;99.90;;;;;;4999995;28;20037;-73
2022/03/09 09:52:40;;;;;;;20.38;15.75;;;7.60;99.90;;;;;;4997058;28;20037;-74
2022/03/09 09:55:07;;;;;;;18.95;15.50;;;7.50;99.90;;;;;;5001808;28;20068;-72
2022/03/09 09:57:33;;;;;;;24.80;17.23;;;7.50;99.90;;;;;;4998604;28;20046;-74
2022/03/09 09:59:59;;;;;;;25.83;16.40;;;7.50;99.90;;;;;;4998620;28;20042;-74
2022/03/09 10:02:25;;;;;;;21.60;16.23;;;7.50;99.90;;;;;;4980601;28;20385;-74
2022/03/09 10:04:52;;;;;;;20.73;16.00;;;7.50;99.90;;;;;;4998585;28;20045;-74
2022/03/09 10:07:18;;;;;;;23.13;16.27;;;7.60;99.90;;;;;;4998218;28;20108;-74
2022/03/09 10:09:44;;;;;;;21.85;15.05;;;7.60;99.90;;;;;;4998477;28;20073;-74
2022/03/09 10:12:13;;;;;;;18.45;14.68;;;7.70;99.90;;;;;;4998792;28;20042;-74
2022/03/09 10:14:52;;;;;;;20.38;16.02;;;7.70;99.90;;;;;;4998027;28;20041;-74
2022/03/09 10:17:24;;;;;;;20.55;14.77;;;7.80;99.90;;;;;;4998701;28;20472;-74
2022/03/09 10:19:54;;;;;;;21.13;14.98;;;7.70;99.90;;;;;;4998715;28;20129;-74
2022/03/09 10:22:26;;;;;;;20.42;15.57;;;7.70;99.90;;;;;;4998552;28;20042;-74
2022/03/09 10:24:53;;;;;;;22.42;15.93;;;7.70;99.90;;;;;;4998278;28;20042;-74
2022/03/09 10:27:39;;;;;;;17.48;13.50;;;7.70;99.90;;;;;;4998088;28;20042;-74
2022/03/09 10:30:09;;;;;;;17.23;14.73;;;7.70;99.90;;;;;;4998276;28;20042;-74
2022/03/09 10:32:44;;;;;;;19.85;13.27;;;7.90;99.90;;;;;;4998065;28;20022;-74
2022/03/09 10:35:15;;;;;;;19.83;14.98;;;7.90;99.90;;;;;;4998166;28;20073;-74
2022/03/09 10:37:44;;;;;;;19.48;14.38;;;8.00;99.90;;;;;;4997818;28;20038;-74
2022/03/09 10:40:18;;;;;;;19.52;14.52;;;8.10;99.90;;;;;;4997712;28;20137;-74
2022/03/09 10:42:45;;;;;;;14.55;12.65;;;8.00;99.90;;;;;;4997917;28;20097;-74
2022/03/09 10:45:11;;;;;;;21.10;14.50;;;8.00;99.90;;;;;;4997687;28;20049;-74
2022/03/09 10:47:43;;;;;;;18.73;14.70;;;8.00;99.90;;;;;;4997662;28;20050;-74
2022/03/09 10:50:20;;;;;;;17.25;14.07;;;7.90;99.90;;;;;;4997927;28;20508;-74
2022/03/09 10:52:52;;;;;;;22.25;15.18;;;7.90;99.90;;;;;;4998030;28;20030;-74
2022/03/09 10:55:37;;;;;;;19.25;14.45;;;8.00;99.90;;;;;;4997717;28;20125;-74
2022/03/09 10:58:11;;;;;;;20.00;15.38;;;8.10;99.90;;;;;;4998166;28;20034;-74
2022/03/09 11:00:43;;;;;;;15.57;13.95;;;8.10;99.90;;;;;;4997675;28;20046;-74
2022/03/09 11:03:21;;;;;;;22.67;19.75;;;8.10;99.90;;;;;;4997797;28;20038;-74
2022/03/09 11:06:03;;;;;;;18.88;15.88;;;8.00;99.90;;;;;;4997114;28;20101;-74
2022/03/09 11:08:34;;;;;;;17.88;12.63;;;8.10;99.90;;;;;;4997742;28;20078;-73
2022/03/09 11:11:02;;;;;;;17.35;14.98;;;8.20;99.90;;;;;;4997372;28;20037;-74
2022/03/09 11:13:33;;;;;;;19.42;13.95;;;8.20;99.90;;;;;;4997342;28;20038;-74
2022/03/09 11:16:00;;;;;;;15.15;12.57;;;8.20;99.90;;;;;;4997150;28;20526;-74
2022/03/09 11:18:28;;;;;;;18.15;13.45;;;8.30;99.90;;;;;;4996996;28;20122;-74
2022/03/09 11:21:03;;;;;;;14.93;12.93;;;8.60;99.90;;;;;;4996980;28;20101;-74
2022/03/09 11:23:30;;;;;;;14.43;12.32;;;8.80;99.90;;;;;;4997155;28;20030;-74
2022/03/09 11:26:10;;;;;;;15.77;12.75;;;9.20;99.90;;;;;;5006295;28;20076;-73
2022/03/09 11:28:42;;;;;;;19.50;16.27;;;9.30;74.80;;;;;;5011224;28;20124;-74
2022/03/09 11:31:10;;;;;;;17.67;11.93;;;9.20;81.70;;;;;;5013465;28;20152;-74
2022/03/09 11:33:39;;;;;;;13.73;12.23;;;9.00;56.70;;;;;;5014369;28;20560;-74
2022/03/09 11:36:27;;;;;;;15.23;12.35;;;9.10;93.70;;;;;;5000826;28;20065;-74
2022/03/09 11:38:55;;;;;;;15.00;13.20;;;9.00;64.70;;;;;;5001346;28;20092;-74
2022/03/09 11:41:31;;;;;;;15.93;13.23;;;9.10;90.80;;;;;;5007194;28;20054;-74
2022/03/09 11:44:19;;;;;;;17.48;14.27;;;9.20;77.50;;;;;;5002789;28;20489;-74
2022/03/09 11:47:03;;;;;;;16.00;12.57;;;9.10;86.60;;;;;;5007676;28;20046;-74
2022/03/09 11:49:41;;;;;;;13.98;11.90;;;9.00;55.10;;;;;;5002688;28;20105;-74
2022/03/09 11:52:13;;;;;;;13.77;12.32;;;8.90;70.80;;;;;;5006632;28;20125;-71
2022/03/09 11:54:55;;;;;;;15.13;12.20;;;8.80;88.60;;;;;;5011421;28;20509;-74
2022/03/09 11:57:23;;;;;;;14.10;12.55;;;8.70;89.80;;;;;;5007689;28;20411;-74
2022/03/09 11:59:58;;;;;;;14.63;12.80;;;8.60;99.90;;;;;;5016371;28;20042;-74
2022/03/09 12:02:36;;;;;;;18.88;13.07;;;8.60;99.90;;;;;;5011828;28;20045;-74
2022/03/09 12:05:04;;;;;;;20.98;14.95;;;8.60;99.90;;;;;;4997606;28;20081;-70
2022/03/09 12:07:30;;;;;;;17.75;15.02;;;8.80;99.90;;;;;;4999336;28;20129;-72
2022/03/09 12:10:02;;;;;;;17.20;15.40;;;9.00;97.80;;;;;;5004614;28;20089;-73
2022/03/09 12:12:31;;;;;;;16.05;13.10;;;8.70;99.90;;;;;;5003962;28;20500;-73
2022/03/09 12:15:10;;;;;;;16.67;12.60;;;8.70;96.90;;;;;;5002736;28;20030;-73
2022/03/09 12:17:49;;;;;;;15.02;11.73;;;8.70;85.80;;;;;;5002410;28;20508;-73
2022/03/09 12:20:18;;;;;;;19.20;12.93;;;8.70;76.40;;;;;;5003147;28;20042;-73
2022/03/09 12:22:56;;;;;;;13.23;11.82;;;8.70;99.90;;;;;;5004775;28;20084;-73
2022/03/09 12:25:40;;;;;;;15.57;12.20;;;8.60;95.90;;;;;;5000082;28;20493;-73
2022/03/09 12:28:29;;;;;;;18.25;12.65;;;8.70;99.90;;;;;;5004499;28;20045;-73
2022/03/09 12:31:09;;;;;;;14.45;12.65;;;8.70;98.00;;;;;;5004527;28;20501;-73
2022/03/09 12:33:36;;;;;;;17.50;14.85;;;8.70;99.90;;;;;;4996743;28;20034;-73
2022/03/09 12:36:17;;;;;;;19.20;12.55;;;8.80;99.90;;;;;;5002442;28;20073;-73
2022/03/09 12:38:45;;;;;;;15.23;11.55;;;9.00;90.70;;;;;;5008993;28;20042;-73
2022/03/09 12:41:23;;;;;;;16.58;10.80;;;9.10;43.10;;;;;;5014869;28;20084;-73
2022/03/09 12:43:55;;;;;;;18.02;12.25;;;9.00;41.50;;;;;;5000053;28;20061;-73
2022/03/09 12:46:22;;;;;;;19.75;12.30;;;9.20;37.00;;;;;;5000851;28;20089;-73
2022/03/09 12:48:48;;;;;;;16.20;12.38;;;9.10;85.70;;;;;;5000917;28;20042;-73
2022/03/09 12:51:14;;;;;;;14.27;11.60;;;9.00;69.80;;;;;;5004576;28;20046;-73
2022/03/09 12:53:42;;;;;;;14.00;11.07;;;9.20;53.10;;;;;;5004367;28;20039;-73